sensor_id;sensor_type;location;lat;lon;timestamp;P1;durP1;ratioP1;P2;durP2;ratioP2
4921;SDS011;16625;53.624;10.106;2023-07-22T00:00:24;11.43;;;8.20;;
4921;SDS011;16625;53.624;10.106;2023-07-22T00:02:51;11.20;;;8.27;;
4921;SDS011;16625;53.624;10.106;2023-07-22T00:05:18;13.93;;;8.90;;
4921;SDS011;16625;53.624;10.106;2023-07-22T00:07:48;16.90;;;10.27;;
4921;SDS011;16625;53.624;10.106;2023-07-22T00:10:15;15.67;;;8.90;;
4921;SDS011;16625;53.624;10.106;2023-07-22T00:12:42;14.80;;;8.67;;
4921;SDS011;16625;53.624;10.106;2023-07-22T00:15:09;11.80;;;7.47;;
4921;SDS011;16625;53.624;10.106;2023-07-22T00:17:39;17.77;;;9.20;;
4921;SDS011;16625;53.624;10.106;2023-07-22T00:20:07;13.53;;;9.00;;
4921;SDS011;16625;53.624;10.106;2023-07-22T00:22:36;13.37;;;7.90;;
4921;SDS011;16625;53.624;10.106;2023-07-22T00:25:05;13.80;;;8.90;;
4921;SDS011;16625;53.624;10.106;2023-07-22T00:27:35;19.03;;;9.90;;
4921;SDS011;16625;53.624;10.106;2023-07-22T00:30:02;11.60;;;8.40;;
4921;SDS011;16625;53.624;10.106;2023-07-22T00:32:30;16.83;;;9.87;;
4921;SDS011;16625;53.624;10.106;2023-07-22T00:34:58;15.37;;;8.27;;
4921;SDS011;16625;53.624;10.106;2023-07-22T00:37:25;14.43;;;8.53;;
4921;SDS011;16625;53.624;10.106;2023-07-22T00:39:52;12.00;;;8.03;;
4921;SDS011;16625;53.624;10.106;2023-07-22T00:42:20;16.70;;;8.97;;
4921;SDS011;16625;53.624;10.106;2023-07-22T00:44:47;14.57;;;8.87;;
4921;SDS011;16625;53.624;10.106;2023-07-22T00:47:13;11.23;;;8.60;;
4921;SDS011;16625;53.624;10.106;2023-07-22T00:49:42;16.00;;;8.77;;
4921;SDS011;16625;53.624;10.106;2023-07-22T00:52:11;18.77;;;8.67;;
4921;SDS011;16625;53.624;10.106;2023-07-22T00:54:38;13.90;;;7.63;;
4921;SDS011;16625;53.624;10.106;2023-07-22T00:57:06;17.20;;;9.07;;
4921;SDS011;16625;53.624;10.106;2023-07-22T00:59:33;12.23;;;9.60;;
4921;SDS011;16625;53.624;10.106;2023-07-22T01:02:00;13.50;;;8.53;;
4921;SDS011;16625;53.624;10.106;2023-07-22T01:04:27;15.47;;;9.53;;
4921;SDS011;16625;53.624;10.106;2023-07-22T01:06:54;13.17;;;8.63;;
4921;SDS011;16625;53.624;10.106;2023-07-22T01:09:25;20.70;;;10.17;;
4921;SDS011;16625;53.624;10.106;2023-07-22T01:11:52;14.27;;;9.37;;
4921;SDS011;16625;53.624;10.106;2023-07-22T01:14:19;14.30;;;8.97;;
4921;SDS011;16625;53.624;10.106;2023-07-22T01:16:46;17.53;;;9.50;;
4921;SDS011;16625;53.624;10.106;2023-07-22T01:19:13;19.83;;;10.27;;
4921;SDS011;16625;53.624;10.106;2023-07-22T01:21:43;15.20;;;9.10;;
4921;SDS011;16625;53.624;10.106;2023-07-22T01:24:13;20.50;;;10.53;;
4921;SDS011;16625;53.624;10.106;2023-07-22T01:26:41;16.97;;;11.17;;
4921;SDS011;16625;53.624;10.106;2023-07-22T01:29:08;18.23;;;8.90;;
4921;SDS011;16625;53.624;10.106;2023-07-22T01:31:35;14.33;;;9.17;;
4921;SDS011;16625;53.624;10.106;2023-07-22T01:34:04;20.83;;;11.47;;
4921;SDS011;16625;53.624;10.106;2023-07-22T01:36:31;19.80;;;9.23;;
4921;SDS011;16625;53.624;10.106;2023-07-22T01:38:58;13.23;;;8.37;;
4921;SDS011;16625;53.624;10.106;2023-07-22T01:41:27;17.10;;;9.13;;
4921;SDS011;16625;53.624;10.106;2023-07-22T01:43:54;20.33;;;8.93;;
4921;SDS011;16625;53.624;10.106;2023-07-22T01:46:20;22.33;;;10.03;;
4921;SDS011;16625;53.624;10.106;2023-07-22T01:48:47;16.70;;;9.93;;
4921;SDS011;16625;53.624;10.106;2023-07-22T01:51:14;17.80;;;10.40;;
4921;SDS011;16625;53.624;10.106;2023-07-22T01:53:41;21.10;;;9.93;;
4921;SDS011;16625;53.624;10.106;2023-07-22T01:56:08;16.10;;;10.77;;
4921;SDS011;16625;53.624;10.106;2023-07-22T01:58:36;23.93;;;9.33;;
4921;SDS011;16625;53.624;10.106;2023-07-22T02:01:03;19.63;;;9.27;;
4921;SDS011;16625;53.624;10.106;2023-07-22T02:03:30;20.47;;;11.63;;
4921;SDS011;16625;53.624;10.106;2023-07-22T02:06:01;14.60;;;9.43;;
4921;SDS011;16625;53.624;10.106;2023-07-22T02:08:29;20.93;;;10.07;;
4921;SDS011;16625;53.624;10.106;2023-07-22T02:10:58;23.17;;;9.40;;
4921;SDS011;16625;53.624;10.106;2023-07-22T02:13:26;26.57;;;10.50;;
4921;SDS011;16625;53.624;10.106;2023-07-22T02:15:55;16.20;;;9.13;;
4921;SDS011;16625;53.624;10.106;2023-07-22T02:18:22;13.37;;;9.00;;
4921;SDS011;16625;53.624;10.106;2023-07-22T02:20:48;18.40;;;9.97;;
4921;SDS011;16625;53.624;10.106;2023-07-22T02:23:15;17.97;;;9.60;;
4921;SDS011;16625;53.624;10.106;2023-07-22T02:25:43;16.43;;;8.80;;
4921;SDS011;16625;53.624;10.106;2023-07-22T02:28:10;19.43;;;9.43;;
4921;SDS011;16625;53.624;10.106;2023-07-22T02:30:37;13.90;;;8.70;;
4921;SDS011;16625;53.624;10.106;2023-07-22T02:33:05;18.40;;;8.30;;
4921;SDS011;16625;53.624;10.106;2023-07-22T02:35:33;20.23;;;9.23;;
4921;SDS011;16625;53.624;10.106;2023-07-22T02:38:00;14.80;;;8.40;;
4921;SDS011;16625;53.624;10.106;2023-07-22T02:40:27;16.17;;;9.83;;
4921;SDS011;16625;53.624;10.106;2023-07-22T02:42:54;22.60;;;9.40;;
4921;SDS011;16625;53.624;10.106;2023-07-22T02:45:21;15.57;;;8.60;;
4921;SDS011;16625;53.624;10.106;2023-07-22T02:47:48;21.07;;;9.87;;
4921;SDS011;16625;53.624;10.106;2023-07-22T02:50:17;15.20;;;9.23;;
4921;SDS011;16625;53.624;10.106;2023-07-22T02:52:44;18.50;;;10.03;;
4921;SDS011;16625;53.624;10.106;2023-07-22T02:55:17;12.73;;;8.33;;
4921;SDS011;16625;53.624;10.106;2023-07-22T02:57:45;18.77;;;8.97;;
4921;SDS011;16625;53.624;10.106;2023-07-22T03:00:13;20.30;;;10.10;;
4921;SDS011;16625;53.624;10.106;2023-07-22T03:02:48;18.93;;;9.20;;
4921;SDS011;16625;53.624;10.106;2023-07-22T03:05:17;24.37;;;9.37;;
4921;SDS011;16625;53.624;10.106;2023-07-22T03:07:45;15.47;;;9.40;;
4921;SDS011;16625;53.624;10.106;2023-07-22T03:10:12;17.43;;;8.00;;
4921;SDS011;16625;53.624;10.106;2023-07-22T03:12:38;23.77;;;9.10;;
4921;SDS011;16625;53.624;10.106;2023-07-22T03:15:06;15.40;;;9.27;;
4921;SDS011;16625;53.624;10.106;2023-07-22T03:17:34;14.80;;;9.20;;
4921;SDS011;16625;53.624;10.106;2023-07-22T03:20:01;26.10;;;9.30;;
4921;SDS011;16625;53.624;10.106;2023-07-22T03:22:38;12.37;;;8.23;;
4921;SDS011;16625;53.624;10.106;2023-07-22T03:25:05;14.80;;;8.87;;
4921;SDS011;16625;53.624;10.106;2023-07-22T03:27:35;13.87;;;9.90;;
4921;SDS011;16625;53.624;10.106;2023-07-22T03:30:03;16.03;;;8.60;;
4921;SDS011;16625;53.624;10.106;2023-07-22T03:32:31;17.57;;;9.63;;
4921;SDS011;16625;53.624;10.106;2023-07-22T03:34:58;18.07;;;8.47;;
4921;SDS011;16625;53.624;10.106;2023-07-22T03:37:26;11.87;;;8.03;;
4921;SDS011;16625;53.624;10.106;2023-07-22T03:39:55;15.57;;;8.30;;
4921;SDS011;16625;53.624;10.106;2023-07-22T03:42:22;16.90;;;9.30;;
4921;SDS011;16625;53.624;10.106;2023-07-22T03:44:49;17.50;;;9.70;;
4921;SDS011;16625;53.624;10.106;2023-07-22T03:47:16;27.03;;;9.73;;
4921;SDS011;16625;53.624;10.106;2023-07-22T03:49:43;20.53;;;10.80;;
4921;SDS011;16625;53.624;10.106;2023-07-22T03:52:10;18.73;;;9.53;;
4921;SDS011;16625;53.624;10.106;2023-07-22T03:54:39;21.50;;;10.17;;
4921;SDS011;16625;53.624;10.106;2023-07-22T03:57:07;21.57;;;9.97;;
4921;SDS011;16625;53.624;10.106;2023-07-22T03:59:34;26.67;;;9.97;;
4921;SDS011;16625;53.624;10.106;2023-07-22T04:02:01;30.87;;;11.00;;
4921;SDS011;16625;53.624;10.106;2023-07-22T04:04:28;23.40;;;9.30;;
4921;SDS011;16625;53.624;10.106;2023-07-22T04:06:55;18.00;;;10.37;;
4921;SDS011;16625;53.624;10.106;2023-07-22T04:09:22;21.77;;;10.10;;
4921;SDS011;16625;53.624;10.106;2023-07-22T04:11:49;19.10;;;9.60;;
4921;SDS011;16625;53.624;10.106;2023-07-22T04:14:17;19.17;;;9.57;;
4921;SDS011;16625;53.624;10.106;2023-07-22T04:16:44;20.30;;;10.50;;
4921;SDS011;16625;53.624;10.106;2023-07-22T04:19:11;18.83;;;11.00;;
4921;SDS011;16625;53.624;10.106;2023-07-22T04:21:38;27.10;;;11.00;;
4921;SDS011;16625;53.624;10.106;2023-07-22T04:24:05;15.03;;;9.60;;
4921;SDS011;16625;53.624;10.106;2023-07-22T04:26:32;20.87;;;10.80;;
4921;SDS011;16625;53.624;10.106;2023-07-22T04:28:59;19.90;;;10.40;;
4921;SDS011;16625;53.624;10.106;2023-07-22T04:31:27;21.47;;;9.97;;
4921;SDS011;16625;53.624;10.106;2023-07-22T04:33:54;17.70;;;10.70;;
4921;SDS011;16625;53.624;10.106;2023-07-22T04:36:23;17.73;;;9.37;;
4921;SDS011;16625;53.624;10.106;2023-07-22T04:38:50;16.30;;;9.70;;
4921;SDS011;16625;53.624;10.106;2023-07-22T04:41:17;19.83;;;9.23;;
4921;SDS011;16625;53.624;10.106;2023-07-22T04:43:44;14.97;;;8.50;;
4921;SDS011;16625;53.624;10.106;2023-07-22T04:46:12;16.20;;;9.90;;
4921;SDS011;16625;53.624;10.106;2023-07-22T04:48:41;18.40;;;9.13;;
4921;SDS011;16625;53.624;10.106;2023-07-22T04:51:08;17.03;;;9.30;;
4921;SDS011;16625;53.624;10.106;2023-07-22T04:53:35;14.53;;;8.73;;
4921;SDS011;16625;53.624;10.106;2023-07-22T04:56:03;19.00;;;9.10;;
4921;SDS011;16625;53.624;10.106;2023-07-22T04:58:30;17.23;;;10.03;;
4921;SDS011;16625;53.624;10.106;2023-07-22T05:00:57;13.60;;;7.43;;
4921;SDS011;16625;53.624;10.106;2023-07-22T05:03:24;22.63;;;10.23;;
4921;SDS011;16625;53.624;10.106;2023-07-22T05:05:53;16.00;;;10.43;;
4921;SDS011;16625;53.624;10.106;2023-07-22T05:08:20;20.23;;;9.40;;
4921;SDS011;16625;53.624;10.106;2023-07-22T05:10:47;14.53;;;9.50;;
4921;SDS011;16625;53.624;10.106;2023-07-22T05:13:14;14.80;;;8.27;;
4921;SDS011;16625;53.624;10.106;2023-07-22T05:15:41;12.70;;;7.90;;
4921;SDS011;16625;53.624;10.106;2023-07-22T05:18:08;13.43;;;8.87;;
4921;SDS011;16625;53.624;10.106;2023-07-22T05:20:37;13.40;;;8.30;;
4921;SDS011;16625;53.624;10.106;2023-07-22T05:23:06;13.20;;;8.20;;
4921;SDS011;16625;53.624;10.106;2023-07-22T05:25:33;12.50;;;8.33;;
4921;SDS011;16625;53.624;10.106;2023-07-22T05:27:59;24.20;;;8.70;;
4921;SDS011;16625;53.624;10.106;2023-07-22T05:30:26;17.53;;;8.83;;
4921;SDS011;16625;53.624;10.106;2023-07-22T05:32:53;14.97;;;8.57;;
4921;SDS011;16625;53.624;10.106;2023-07-22T05:35:20;16.70;;;9.07;;
4921;SDS011;16625;53.624;10.106;2023-07-22T05:37:48;18.97;;;9.03;;
4921;SDS011;16625;53.624;10.106;2023-07-22T05:40:16;14.60;;;8.90;;
4921;SDS011;16625;53.624;10.106;2023-07-22T05:42:43;9.63;;;7.67;;
4921;SDS011;16625;53.624;10.106;2023-07-22T05:45:10;11.07;;;7.27;;
4921;SDS011;16625;53.624;10.106;2023-07-22T05:47:40;9.90;;;7.27;;
4921;SDS011;16625;53.624;10.106;2023-07-22T05:50:07;17.10;;;7.90;;
4921;SDS011;16625;53.624;10.106;2023-07-22T05:52:35;10.47;;;6.70;;
4921;SDS011;16625;53.624;10.106;2023-07-22T05:55:02;12.20;;;7.77;;
4921;SDS011;16625;53.624;10.106;2023-07-22T05:57:31;9.97;;;6.50;;
4921;SDS011;16625;53.624;10.106;2023-07-22T05:59:58;13.73;;;6.53;;
4921;SDS011;16625;53.624;10.106;2023-07-22T06:02:25;13.53;;;7.27;;
4921;SDS011;16625;53.624;10.106;2023-07-22T06:04:52;10.10;;;5.70;;
4921;SDS011;16625;53.624;10.106;2023-07-22T06:07:19;9.00;;;6.30;;
4921;SDS011;16625;53.624;10.106;2023-07-22T06:09:46;10.37;;;6.77;;
4921;SDS011;16625;53.624;10.106;2023-07-22T06:12:13;11.07;;;6.57;;
4921;SDS011;16625;53.624;10.106;2023-07-22T06:14:42;11.37;;;5.83;;
4921;SDS011;16625;53.624;10.106;2023-07-22T06:17:08;12.53;;;6.23;;
4921;SDS011;16625;53.624;10.106;2023-07-22T06:19:35;12.27;;;6.43;;
4921;SDS011;16625;53.624;10.106;2023-07-22T06:22:02;11.53;;;5.70;;
4921;SDS011;16625;53.624;10.106;2023-07-22T06:24:30;12.57;;;5.67;;
4921;SDS011;16625;53.624;10.106;2023-07-22T06:26:57;9.67;;;4.63;;
4921;SDS011;16625;53.624;10.106;2023-07-22T06:29:24;7.23;;;4.70;;
4921;SDS011;16625;53.624;10.106;2023-07-22T06:31:52;14.63;;;5.00;;
4921;SDS011;16625;53.624;10.106;2023-07-22T06:34:19;7.80;;;5.50;;
4921;SDS011;16625;53.624;10.106;2023-07-22T06:36:46;8.80;;;4.97;;
4921;SDS011;16625;53.624;10.106;2023-07-22T06:39:13;12.67;;;4.87;;
4921;SDS011;16625;53.624;10.106;2023-07-22T06:41:40;8.47;;;4.87;;
4921;SDS011;16625;53.624;10.106;2023-07-22T06:44:07;8.70;;;5.00;;
4921;SDS011;16625;53.624;10.106;2023-07-22T06:46:35;7.30;;;4.50;;
4921;SDS011;16625;53.624;10.106;2023-07-22T06:49:03;7.30;;;4.70;;
4921;SDS011;16625;53.624;10.106;2023-07-22T06:51:30;7.23;;;4.30;;
4921;SDS011;16625;53.624;10.106;2023-07-22T06:53:57;7.73;;;4.00;;
4921;SDS011;16625;53.624;10.106;2023-07-22T06:56:24;7.00;;;4.03;;
4921;SDS011;16625;53.624;10.106;2023-07-22T06:58:51;9.27;;;4.20;;
4921;SDS011;16625;53.624;10.106;2023-07-22T07:01:18;9.03;;;3.90;;
4921;SDS011;16625;53.624;10.106;2023-07-22T07:03:45;7.73;;;4.00;;
4921;SDS011;16625;53.624;10.106;2023-07-22T07:06:14;5.90;;;4.20;;
4921;SDS011;16625;53.624;10.106;2023-07-22T07:08:41;6.83;;;3.70;;
4921;SDS011;16625;53.624;10.106;2023-07-22T07:11:08;3.53;;;3.07;;
4921;SDS011;16625;53.624;10.106;2023-07-22T07:13:35;11.63;;;4.10;;
4921;SDS011;16625;53.624;10.106;2023-07-22T07:18:47;12.27;;;3.57;;
4921;SDS011;16625;53.624;10.106;2023-07-22T07:21:15;3.73;;;2.70;;
4921;SDS011;16625;53.624;10.106;2023-07-22T07:23:42;9.47;;;3.80;;
4921;SDS011;16625;53.624;10.106;2023-07-22T07:26:09;3.13;;;2.57;;
4921;SDS011;16625;53.624;10.106;2023-07-22T07:28:36;5.67;;;2.50;;
4921;SDS011;16625;53.624;10.106;2023-07-22T07:31:03;5.87;;;2.83;;
4921;SDS011;16625;53.624;10.106;2023-07-22T07:33:30;4.00;;;2.63;;
4921;SDS011;16625;53.624;10.106;2023-07-22T07:35:57;4.70;;;2.63;;
4921;SDS011;16625;53.624;10.106;2023-07-22T07:38:26;4.73;;;2.57;;
4921;SDS011;16625;53.624;10.106;2023-07-22T07:40:55;4.40;;;3.03;;
4921;SDS011;16625;53.624;10.106;2023-07-22T07:43:23;6.50;;;2.90;;
4921;SDS011;16625;53.624;10.106;2023-07-22T07:45:50;8.10;;;2.20;;
4921;SDS011;16625;53.624;10.106;2023-07-22T07:48:37;5.20;;;2.23;;
4921;SDS011;16625;53.624;10.106;2023-07-22T07:51:04;9.50;;;4.43;;
4921;SDS011;16625;53.624;10.106;2023-07-22T07:53:32;7.97;;;2.93;;
4921;SDS011;16625;53.624;10.106;2023-07-22T07:55:59;9.13;;;2.70;;
4921;SDS011;16625;53.624;10.106;2023-07-22T07:58:26;8.23;;;2.93;;
4921;SDS011;16625;53.624;10.106;2023-07-22T08:00:53;3.67;;;2.73;;
4921;SDS011;16625;53.624;10.106;2023-07-22T08:03:20;3.60;;;2.40;;
4921;SDS011;16625;53.624;10.106;2023-07-22T08:05:47;3.00;;;2.23;;
4921;SDS011;16625;53.624;10.106;2023-07-22T08:08:14;2.60;;;2.30;;
4921;SDS011;16625;53.624;10.106;2023-07-22T08:10:43;6.40;;;2.00;;
4921;SDS011;16625;53.624;10.106;2023-07-22T08:13:10;6.23;;;2.73;;
4921;SDS011;16625;53.624;10.106;2023-07-22T08:15:37;7.23;;;2.77;;
4921;SDS011;16625;53.624;10.106;2023-07-22T08:18:04;5.63;;;2.90;;
4921;SDS011;16625;53.624;10.106;2023-07-22T08:20:31;5.67;;;3.20;;
4921;SDS011;16625;53.624;10.106;2023-07-22T08:22:58;4.00;;;2.20;;
4921;SDS011;16625;53.624;10.106;2023-07-22T08:25:25;4.40;;;2.50;;
4921;SDS011;16625;53.624;10.106;2023-07-22T08:27:54;4.43;;;2.60;;
4921;SDS011;16625;53.624;10.106;2023-07-22T08:30:21;3.47;;;2.37;;
4921;SDS011;16625;53.624;10.106;2023-07-22T08:32:48;7.70;;;2.40;;
4921;SDS011;16625;53.624;10.106;2023-07-22T08:35:14;4.70;;;2.30;;
4921;SDS011;16625;53.624;10.106;2023-07-22T08:37:42;3.17;;;2.10;;
4921;SDS011;16625;53.624;10.106;2023-07-22T08:40:12;2.67;;;1.93;;
4921;SDS011;16625;53.624;10.106;2023-07-22T08:42:39;5.20;;;1.93;;
4921;SDS011;16625;53.624;10.106;2023-07-22T08:45:09;5.10;;;2.50;;
4921;SDS011;16625;53.624;10.106;2023-07-22T08:47:37;2.00;;;1.60;;
4921;SDS011;16625;53.624;10.106;2023-07-22T08:50:08;5.67;;;2.57;;
4921;SDS011;16625;53.624;10.106;2023-07-22T08:52:36;3.23;;;2.50;;
4921;SDS011;16625;53.624;10.106;2023-07-22T08:55:04;4.70;;;2.23;;
4921;SDS011;16625;53.624;10.106;2023-07-22T08:57:32;4.43;;;2.50;;
4921;SDS011;16625;53.624;10.106;2023-07-22T08:59:59;4.13;;;2.03;;
4921;SDS011;16625;53.624;10.106;2023-07-22T09:02:32;2.63;;;1.90;;
4921;SDS011;16625;53.624;10.106;2023-07-22T09:04:59;4.90;;;1.93;;
4921;SDS011;16625;53.624;10.106;2023-07-22T09:07:26;6.47;;;2.30;;
4921;SDS011;16625;53.624;10.106;2023-07-22T09:09:54;3.47;;;2.30;;
4921;SDS011;16625;53.624;10.106;2023-07-22T09:12:23;2.50;;;1.77;;
4921;SDS011;16625;53.624;10.106;2023-07-22T09:14:51;3.37;;;1.67;;
4921;SDS011;16625;53.624;10.106;2023-07-22T09:17:19;8.50;;;2.20;;
4921;SDS011;16625;53.624;10.106;2023-07-22T09:19:47;3.00;;;1.63;;
4921;SDS011;16625;53.624;10.106;2023-07-22T09:22:18;3.90;;;2.40;;
4921;SDS011;16625;53.624;10.106;2023-07-22T09:24:50;5.00;;;2.00;;
4921;SDS011;16625;53.624;10.106;2023-07-22T09:27:18;3.40;;;1.93;;
4921;SDS011;16625;53.624;10.106;2023-07-22T09:29:59;4.17;;;1.77;;
4921;SDS011;16625;53.624;10.106;2023-07-22T09:32:34;4.63;;;1.60;;
4921;SDS011;16625;53.624;10.106;2023-07-22T09:35:04;3.43;;;1.90;;
4921;SDS011;16625;53.624;10.106;2023-07-22T09:37:38;3.23;;;2.00;;
4921;SDS011;16625;53.624;10.106;2023-07-22T09:40:13;5.03;;;1.90;;
4921;SDS011;16625;53.624;10.106;2023-07-22T09:42:42;2.50;;;1.80;;
4921;SDS011;16625;53.624;10.106;2023-07-22T09:45:11;6.33;;;2.53;;
4921;SDS011;16625;53.624;10.106;2023-07-22T09:47:41;5.07;;;2.30;;
4921;SDS011;16625;53.624;10.106;2023-07-22T09:50:13;4.37;;;2.10;;
4921;SDS011;16625;53.624;10.106;2023-07-22T09:52:45;4.53;;;1.80;;
4921;SDS011;16625;53.624;10.106;2023-07-22T09:55:17;2.77;;;1.87;;
4921;SDS011;16625;53.624;10.106;2023-07-22T09:57:45;2.70;;;1.83;;
4921;SDS011;16625;53.624;10.106;2023-07-22T10:00:14;4.57;;;1.77;;
4921;SDS011;16625;53.624;10.106;2023-07-22T10:02:44;5.80;;;1.90;;
4921;SDS011;16625;53.624;10.106;2023-07-22T10:05:16;5.03;;;2.00;;
4921;SDS011;16625;53.624;10.106;2023-07-22T10:07:44;6.10;;;2.20;;
4921;SDS011;16625;53.624;10.106;2023-07-22T10:10:13;3.97;;;2.13;;
4921;SDS011;16625;53.624;10.106;2023-07-22T10:12:43;2.30;;;1.70;;
4921;SDS011;16625;53.624;10.106;2023-07-22T10:15:10;4.20;;;1.70;;
4921;SDS011;16625;53.624;10.106;2023-07-22T10:17:38;3.87;;;2.00;;
4921;SDS011;16625;53.624;10.106;2023-07-22T10:20:06;2.50;;;1.57;;
4921;SDS011;16625;53.624;10.106;2023-07-22T10:22:41;3.37;;;2.03;;
4921;SDS011;16625;53.624;10.106;2023-07-22T10:25:10;3.47;;;2.20;;
4921;SDS011;16625;53.624;10.106;2023-07-22T10:27:38;4.20;;;2.20;;
4921;SDS011;16625;53.624;10.106;2023-07-22T10:30:06;3.00;;;1.63;;
4921;SDS011;16625;53.624;10.106;2023-07-22T10:32:34;3.97;;;1.90;;
4921;SDS011;16625;53.624;10.106;2023-07-22T10:35:03;5.33;;;2.27;;
4921;SDS011;16625;53.624;10.106;2023-07-22T10:37:31;3.47;;;2.40;;
4921;SDS011;16625;53.624;10.106;2023-07-22T10:40:00;4.30;;;2.40;;
4921;SDS011;16625;53.624;10.106;2023-07-22T10:42:42;5.03;;;2.60;;
4921;SDS011;16625;53.624;10.106;2023-07-22T10:45:22;5.33;;;2.70;;
4921;SDS011;16625;53.624;10.106;2023-07-22T10:47:59;4.23;;;2.57;;
4921;SDS011;16625;53.624;10.106;2023-07-22T10:50:37;4.97;;;2.60;;
4921;SDS011;16625;53.624;10.106;2023-07-22T10:53:06;4.20;;;3.00;;
4921;SDS011;16625;53.624;10.106;2023-07-22T10:55:41;3.23;;;2.60;;
4921;SDS011;16625;53.624;10.106;2023-07-22T10:58:29;3.90;;;2.30;;
4921;SDS011;16625;53.624;10.106;2023-07-22T11:00:56;5.43;;;3.07;;
4921;SDS011;16625;53.624;10.106;2023-07-22T11:06:56;3.27;;;2.43;;
4921;SDS011;16625;53.624;10.106;2023-07-22T11:09:33;5.00;;;3.03;;
4921;SDS011;16625;53.624;10.106;2023-07-22T11:12:03;2.90;;;1.80;;
4921;SDS011;16625;53.624;10.106;2023-07-22T11:14:32;3.80;;;2.60;;
4921;SDS011;16625;53.624;10.106;2023-07-22T11:17:02;4.40;;;3.20;;
4921;SDS011;16625;53.624;10.106;2023-07-22T11:19:30;3.70;;;2.53;;
4921;SDS011;16625;53.624;10.106;2023-07-22T11:21:57;4.50;;;2.60;;
4921;SDS011;16625;53.624;10.106;2023-07-22T11:24:25;6.33;;;3.13;;
4921;SDS011;16625;53.624;10.106;2023-07-22T11:26:52;3.67;;;2.53;;
4921;SDS011;16625;53.624;10.106;2023-07-22T11:29:21;6.33;;;2.40;;
4921;SDS011;16625;53.624;10.106;2023-07-22T11:31:49;5.10;;;3.13;;
4921;SDS011;16625;53.624;10.106;2023-07-22T11:34:17;5.07;;;2.40;;
4921;SDS011;16625;53.624;10.106;2023-07-22T11:36:46;4.37;;;3.03;;
4921;SDS011;16625;53.624;10.106;2023-07-22T11:39:14;4.50;;;3.07;;
4921;SDS011;16625;53.624;10.106;2023-07-22T11:41:42;6.07;;;3.60;;
4921;SDS011;16625;53.624;10.106;2023-07-22T11:44:11;4.83;;;3.30;;
4921;SDS011;16625;53.624;10.106;2023-07-22T11:46:48;5.63;;;3.53;;
4921;SDS011;16625;53.624;10.106;2023-07-22T11:49:24;4.77;;;3.53;;
4921;SDS011;16625;53.624;10.106;2023-07-22T11:51:54;5.77;;;3.23;;
4921;SDS011;16625;53.624;10.106;2023-07-22T11:54:22;5.20;;;3.37;;
4921;SDS011;16625;53.624;10.106;2023-07-22T11:56:49;9.23;;;3.17;;
4921;SDS011;16625;53.624;10.106;2023-07-22T11:59:16;5.90;;;3.77;;
4921;SDS011;16625;53.624;10.106;2023-07-22T12:02:01;5.63;;;3.80;;
4921;SDS011;16625;53.624;10.106;2023-07-22T12:04:28;5.83;;;3.03;;
4921;SDS011;16625;53.624;10.106;2023-07-22T12:06:55;4.53;;;3.23;;
4921;SDS011;16625;53.624;10.106;2023-07-22T12:09:22;4.90;;;3.63;;
4921;SDS011;16625;53.624;10.106;2023-07-22T12:11:54;6.68;;;3.55;;
4921;SDS011;16625;53.624;10.106;2023-07-22T12:14:22;7.30;;;3.50;;
4921;SDS011;16625;53.624;10.106;2023-07-22T12:16:52;7.18;;;3.90;;
4921;SDS011;16625;53.624;10.106;2023-07-22T12:19:24;7.00;;;3.22;;
4921;SDS011;16625;53.624;10.106;2023-07-22T12:21:54;7.47;;;3.30;;
4921;SDS011;16625;53.624;10.106;2023-07-22T12:24:21;5.25;;;3.63;;
4921;SDS011;16625;53.624;10.106;2023-07-22T12:26:48;14.45;;;3.55;;
4921;SDS011;16625;53.624;10.106;2023-07-22T12:29:14;5.00;;;4.03;;
4921;SDS011;16625;53.624;10.106;2023-07-22T12:31:41;6.00;;;4.63;;
4921;SDS011;16625;53.624;10.106;2023-07-22T12:34:08;6.43;;;3.50;;
4921;SDS011;16625;53.624;10.106;2023-07-22T12:36:37;5.30;;;3.67;;
4921;SDS011;16625;53.624;10.106;2023-07-22T12:39:04;7.70;;;3.40;;
4921;SDS011;16625;53.624;10.106;2023-07-22T12:41:31;5.50;;;3.83;;
4921;SDS011;16625;53.624;10.106;2023-07-22T12:43:58;10.73;;;4.35;;
4921;SDS011;16625;53.624;10.106;2023-07-22T12:46:25;8.13;;;3.80;;
4921;SDS011;16625;53.624;10.106;2023-07-22T12:48:51;6.97;;;3.93;;
4921;SDS011;16625;53.624;10.106;2023-07-22T12:51:18;7.20;;;4.40;;
4921;SDS011;16625;53.624;10.106;2023-07-22T12:53:47;7.10;;;4.70;;
4921;SDS011;16625;53.624;10.106;2023-07-22T12:56:14;6.23;;;4.50;;
4921;SDS011;16625;53.624;10.106;2023-07-22T12:58:40;7.80;;;4.70;;
4921;SDS011;16625;53.624;10.106;2023-07-22T13:01:07;8.90;;;4.50;;
4921;SDS011;16625;53.624;10.106;2023-07-22T13:03:34;9.20;;;5.40;;
4921;SDS011;16625;53.624;10.106;2023-07-22T13:06:01;10.07;;;5.13;;
4921;SDS011;16625;53.624;10.106;2023-07-22T13:08:28;6.57;;;4.40;;
4921;SDS011;16625;53.624;10.106;2023-07-22T13:10:57;11.43;;;6.10;;
4921;SDS011;16625;53.624;10.106;2023-07-22T13:13:24;8.90;;;5.30;;
4921;SDS011;16625;53.624;10.106;2023-07-22T13:15:51;8.03;;;5.10;;
4921;SDS011;16625;53.624;10.106;2023-07-22T13:18:18;10.57;;;5.80;;
4921;SDS011;16625;53.624;10.106;2023-07-22T13:20:44;15.53;;;5.63;;
4921;SDS011;16625;53.624;10.106;2023-07-22T13:23:11;12.03;;;5.20;;
4921;SDS011;16625;53.624;10.106;2023-07-22T13:25:38;8.97;;;5.80;;
4921;SDS011;16625;53.624;10.106;2023-07-22T13:28:07;10.40;;;6.73;;
4921;SDS011;16625;53.624;10.106;2023-07-22T13:30:34;14.30;;;5.80;;
4921;SDS011;16625;53.624;10.106;2023-07-22T13:33:01;10.20;;;6.17;;
4921;SDS011;16625;53.624;10.106;2023-07-22T13:35:28;12.80;;;5.90;;
4921;SDS011;16625;53.624;10.106;2023-07-22T13:37:55;9.90;;;6.23;;
4921;SDS011;16625;53.624;10.106;2023-07-22T13:40:22;8.10;;;5.97;;
4921;SDS011;16625;53.624;10.106;2023-07-22T13:42:49;14.50;;;6.23;;
4921;SDS011;16625;53.624;10.106;2023-07-22T13:45:18;8.93;;;5.23;;
4921;SDS011;16625;53.624;10.106;2023-07-22T13:47:45;11.23;;;5.80;;
4921;SDS011;16625;53.624;10.106;2023-07-22T13:50:12;10.63;;;6.10;;
4921;SDS011;16625;53.624;10.106;2023-07-22T13:52:38;9.27;;;5.90;;
4921;SDS011;16625;53.624;10.106;2023-07-22T13:55:06;9.70;;;5.83;;
4921;SDS011;16625;53.624;10.106;2023-07-22T13:57:36;9.67;;;6.30;;
4921;SDS011;16625;53.624;10.106;2023-07-22T14:00:03;11.20;;;6.43;;
4921;SDS011;16625;53.624;10.106;2023-07-22T14:02:36;9.93;;;6.53;;
4921;SDS011;16625;53.624;10.106;2023-07-22T14:05:04;11.00;;;6.70;;
4921;SDS011;16625;53.624;10.106;2023-07-22T14:07:32;11.97;;;7.03;;
4921;SDS011;16625;53.624;10.106;2023-07-22T14:09:59;12.40;;;6.53;;
4921;SDS011;16625;53.624;10.106;2023-07-22T14:12:26;10.07;;;6.80;;
4921;SDS011;16625;53.624;10.106;2023-07-22T14:14:53;10.80;;;6.63;;
4921;SDS011;16625;53.624;10.106;2023-07-22T14:17:20;13.10;;;7.43;;
4921;SDS011;16625;53.624;10.106;2023-07-22T14:19:48;10.17;;;7.00;;
4921;SDS011;16625;53.624;10.106;2023-07-22T14:22:15;13.10;;;7.60;;
4921;SDS011;16625;53.624;10.106;2023-07-22T14:24:42;10.13;;;6.03;;
4921;SDS011;16625;53.624;10.106;2023-07-22T14:27:09;12.57;;;6.87;;
4921;SDS011;16625;53.624;10.106;2023-07-22T14:29:36;9.20;;;5.77;;
4921;SDS011;16625;53.624;10.106;2023-07-22T14:32:04;10.30;;;6.53;;
4921;SDS011;16625;53.624;10.106;2023-07-22T14:34:31;10.57;;;6.03;;
4921;SDS011;16625;53.624;10.106;2023-07-22T14:37:00;9.83;;;6.47;;
4921;SDS011;16625;53.624;10.106;2023-07-22T14:39:31;11.90;;;6.50;;
4921;SDS011;16625;53.624;10.106;2023-07-22T14:41:58;13.07;;;6.23;;
4921;SDS011;16625;53.624;10.106;2023-07-22T14:44:25;11.87;;;5.77;;
4921;SDS011;16625;53.624;10.106;2023-07-22T14:46:52;10.23;;;6.40;;
4921;SDS011;16625;53.624;10.106;2023-07-22T14:49:19;9.80;;;6.57;;
4921;SDS011;16625;53.624;10.106;2023-07-22T14:51:46;10.77;;;6.53;;